KCIC/CIC METAR and TAF weather

Enter ICAO airport designator
Station Type Date Time Source
KCIC METAR 2019/12/13 00:47 UTC NOAA

KCIC 130047Z 14005KT 10SM BKN024 OVC029 14/13 A3028


Station Type Date Time Source
KCIC Decoded METAR 2019/12/13 00:47 UTC NOAA

Chico Municipal , CA, United States (KCIC) 39-48N 121-51W
Dec 12, 2019 - 07:47 PM EST / 2019.12.13 0047 UTC
Wind: from the SE (140 degrees) at 6 MPH (5 KT):0
Visibility: 10 mile(s):0
Sky conditions: overcast
Temperature: 57 F (14 C)
Dew Point: 55 F (13 C)
Relative Humidity: 93%
Pressure (altimeter): 30.28 in. Hg (1025 hPa)
ob: KCIC 130047Z 14005KT 10SM BKN024 OVC029 14/13 A3028
cycle: 1

Station Type Date Time Source
KCIC TAF UTC NOAA

Error!

Example: see airport list